Historyczne dane pomiarowe

Dodano dane terminowe – wersja testowa.

Dane z okresu 1951-2019

Wersja bazy: 1.34 [2019-03-16, lista zmian], aktualizacja planowana na 2019-04-15

Dane meteo z obszaru Polski uzyskane na podstawie danych udostępnionych przez Instytut Meteorologii i Gospodarki Wodnej – Państwowy Instytut Badawczy.

 

Wybierz Datę:    

       

TemperaturaWilgotnośćWiatrCiśnienieOpadyŚniegCzas trwania zjawisk
 Stacja t tx tn tng RH VA  wxwx mslp ppp RRR   cm mm wxwxwxwxwxwxwx
1994-08-14 16.5 20.3 11.9- 73.5- 7.0 1.7---- 0.9------------
1994-08-13 18.4 23.7 13.5- 77.0- 5.7 5.0---- 0.9------------
1994-08-12 17.4 21.0 13.3- 87.5- 7.0 4.7---- 0.0------------
1994-08-11 17.7 21.7 16.1- 91.5- 8.0 4.7---- 7.0------------
1994-08-10 19.9 27.4 13.4- 76.5- 2.7 0.7---- 0.0------------
1994-08-09 19.8 23.4 18.0- 92.0- 8.0 0.7---- 6.0------------
1994-08-08 22.1 29.4 13.0- 84.5- 7.3 1.3---- 2.5------------
1994-08-07 23.2 32.9 18.8- 75.0- 2.7 3.0---- 3.5------------
1994-08-06 21.9 32.1 12.7- 71.5- 2.7 3.3---- 3.5------------
1994-08-05 23.7 31.4 15.9- 63.3- 0.0 1.7---- 0.0------------
1994-08-04 23.4 30.9 15.6- 75.0- 6.0 1.0---- 4.9------------
1994-08-03 25.5 32.1 15.3- 62.0- 3.7 3.7---- 7.1------------
1994-08-02 25.2 33.6 15.3- 57.3- 3.3 3.3---- 0.0------------
1994-08-01 26.0 36.0 15.2- 52.8- 0.0 2.7---- 0.0------------
1994-07-31 25.6 36.0 15.0- 56.0- 0.0 2.0---- 0.0------------
1994-07-30 23.0 34.9 13.6- 48.0- 0.0 0.7---- 0.0------------
1994-07-29 24.1 34.4 12.4- 58.5- 0.0 0.3---- 0.0------------
1994-07-28 22.4 30.9 15.6- 67.0- 0.0 1.0---- 0.0------------
1994-07-27 23.2 34.9 12.8- 60.8- 0.0 1.0---- 0.0------------
1994-07-26 23.3 32.9 13.4- 58.8- 0.0 2.0---- 0.0------------
1994-07-25 22.0 32.5 10.8- 61.3- 0.0 1.0---- 0.0------------
1994-07-24 22.3 30.9 11.7- 56.8- 0.0 1.3---- 0.0------------
1994-07-23 20.9 29.4 11.6- 59.0- 0.0 0.7---- 0.0------------
1994-07-22 20.5 29.4 9.3- 58.0- 0.0 1.0---- 0.0------------
1994-07-21 19.8 27.4 9.8- 60.8- 0.0 1.3---- 0.0------------
1994-07-20 19.4 24.8 10.7- 59.5- 0.0 2.0---- 0.0------------
1994-07-19 18.6 23.8 14.7- 73.8- 5.7 2.0---- 2.6------------
1994-07-18 21.3 28.9 16.6- 79.8- 2.7 3.0---- 0.2------------
1994-07-17 21.7 28.4 16.6- 73.3- 1.7 2.3---- 8.8------------
1994-07-16 23.2 30.9 14.3- 69.3- 0.0 1.3---- 0.0------------
1994-07-15 22.6 28.9 13.9- 71.3- 0.0 1.7---- 0.0------------
1994-07-14 21.1 29.4 14.5- 68.0- 0.0 1.7---- 0.0------------
1994-07-13 21.7 28.9 13.7- 64.0- 1.3 3.0---- 0.0------------
1994-07-12 21.6 26.9 14.1- 64.5- 1.7 1.3---- 0.0------------
1994-07-11 18.8 25.4 11.1- 72.5- 0.0 2.3---- 0.0------------
1994-07-10 17.5 21.6 11.1- 82.8- 8.0 3.0---- 1.5------------
1994-07-09 14.7 18.0 11.1- 83.0- 7.7 8.7---- 10.0------------
1994-07-08 17.6 24.8 15.0- 72.5- 6.7 4.0---- 0.4------------
1994-07-07 19.3 27.0 9.7- 65.0- 0.0 2.0---- 0.9------------
1994-07-06 19.9 25.9 10.6- 60.3- 0.0 0.0---- 0.0------------
1994-07-05 21.7 28.5 12.1- 58.3- 2.3 1.7---- 1.3------------
1994-07-04 20.9 27.1 12.1- 58.0- 0.0 0.3---- 0.0------------
1994-07-03 17.6 25.0 12.6- 53.5- 0.0 1.0---- 0.0------------
1994-07-02 17.9 24.3 8.7- 62.0- 0.0 3.0---- 0.0------------
1994-07-01 20.7 27.6 14.5- 63.0- 5.3 4.0---- 0.0------------
1994-06-30 24.0 27.6 16.0- 78.8- 3.7 2.7---- 1.7------------
1994-06-29 24.7 30.6 17.0- 72.3- 0.0 0.3---- 0.0------------
1994-06-28 25.4 30.4 18.1- 68.8- 0.0 2.0---- 0.0------------
1994-06-27 25.0 31.4 15.5- 69.3- 0.0 1.3---- 0.0------------
1994-06-26 17.6 27.9 8.9- 59.8- 0.0 1.3---- 0.0------------
1994-06-25 16.4 22.3 4.2- 53.3- 0.0 0.3---- 0.0------------
1994-06-24 16.4 19.3 6.4- 61.0- 0.0 6.7---- 0.0------------
1994-06-23 18.3 22.0 7.3- 54.3- 3.7 7.0---- 0.0------------
1994-06-22 18.2 26.8 7.2- 73.0- 0.0 3.7---- 0.0------------
1994-06-21 16.0 21.5 6.3- 65.5- 1.0 1.3---- 0.0------------
1994-06-20 17.2 20.1 10.1- 70.8- 3.0 5.3---- 0.0------------
1994-06-19 17.1 22.8 13.1- 67.5- 1.7 1.0---- 0.0------------
1994-06-18 13.5 18.3 2.9- 72.0- 4.0 4.0---- 10.3------------
1994-06-17 12.7 16.5 9.4- 62.5- 3.7 5.7---- 0.0------------
1994-06-16 13.4 17.2 6.5- 71.5- 7.3 6.3---- 4.0------------
268.9 ms

 

Źródłem pochodzenia danych jest Instytut Meteorologii i Gospodarki Wodnej – Państwowy Instytut Badawczy. Dane Instytutu Meteorologii i Gospodarki Wodnej – Państwowego Instytutu Badawczego zostały przetworzone.

Dane źródłowe można odnaleźć na stronie https://dane.imgw.pl